Map

Track Data

SID SEASON NUMBER BASIN SUBBASIN NAME ISO_TIME NATURE LAT LON WMO_WIND WMO_PRES WMO_AGENCY TRACK_TYPE DIST2LAND LANDFALL IFLAG USA_AGENCY USA_ATCF_ID USA_LAT USA_LON USA_RECORD USA_STATUS USA_WIND USA_PRES USA_SSHS USA_R34_NE USA_R34_SE USA_R34_SW USA_R34_NW USA_R50_NE USA_R50_SE USA_R50_SW USA_R50_NW USA_R64_NE USA_R64_SE USA_R64_SW USA_R64_NW USA_POCI USA_ROCI USA_RMW USA_EYE TOKYO_LAT TOKYO_LON TOKYO_GRADE TOKYO_WIND TOKYO_PRES TOKYO_R50_DIR TOKYO_R50_LONG TOKYO_R50_SHORT TOKYO_R30_DIR TOKYO_R30_LONG TOKYO_R30_SHORT TOKYO_LAND CMA_LAT CMA_LON CMA_CAT CMA_WIND CMA_PRES HKO_LAT HKO_LON HKO_CAT HKO_WIND HKO_PRES NEWDELHI_LAT NEWDELHI_LON NEWDELHI_GRADE NEWDELHI_WIND NEWDELHI_PRES NEWDELHI_CI NEWDELHI_DP NEWDELHI_POCI REUNION_LAT REUNION_LON REUNION_TYPE REUNION_WIND REUNION_PRES REUNION_TNUM REUNION_CI REUNION_RMW REUNION_R34_NE REUNION_R34_SE REUNION_R34_SW REUNION_R34_NW REUNION_R50_NE REUNION_R50_SE REUNION_R50_SW REUNION_R50_NW REUNION_R64_NE REUNION_R64_SE REUNION_R64_SW REUNION_R64_NW BOM_LAT BOM_LON BOM_TYPE BOM_WIND BOM_PRES BOM_TNUM BOM_CI BOM_RMW BOM_R34_NE BOM_R34_SE BOM_R34_SW BOM_R34_NW BOM_R50_NE BOM_R50_SE BOM_R50_SW BOM_R50_NW BOM_R64_NE BOM_R64_SE BOM_R64_SW BOM_R64_NW BOM_ROCI BOM_POCI BOM_EYE BOM_POS_METHOD BOM_PRES_METHOD NADI_LAT NADI_LON NADI_CAT NADI_WIND NADI_PRES WELLINGTON_LAT WELLINGTON_LON WELLINGTON_WIND WELLINGTON_PRES DS824_LAT DS824_LON DS824_STAGE DS824_WIND DS824_PRES TD9636_LAT TD9636_LON TD9636_STAGE TD9636_WIND TD9636_PRES TD9635_LAT TD9635_LON TD9635_WIND TD9635_PRES TD9635_ROCI NEUMANN_LAT NEUMANN_LON NEUMANN_CLASS NEUMANN_WIND NEUMANN_PRES MLC_LAT MLC_LON MLC_CLASS MLC_WIND MLC_PRES USA_GUST BOM_GUST BOM_GUST_PER REUNION_GUST REUNION_GUST_PER USA_SEAHGT USA_SEARAD_NE USA_SEARAD_SE USA_SEARAD_SW USA_SEARAD_NW STORM_SPEED STORM_DIR
1948334N09128 1948 87 WP MM NOT_NAMED 1948-11-29 00:00:00 TS 9.20000 128.000 main 192 108 O________OOO__ jtwc_wp WP241948 9.20000 128.000 35 0 9.20000 128.000 TC 35 9.20000 128.000 2 35 9.20000 128.000 35 1002 240 17 274
1948334N09128 1948 87 WP MM NOT_NAMED 1948-11-29 03:00:00 TS 9.25588 127.153 main 110 15 P________PPP__ WP241948 9.23279 127.165 35 0 9.23279 127.165 TC 35 9.32515 127.118 2 35 9.23279 127.165 35 1002 240 17 274
1948334N09128 1948 87 WP MM NOT_NAMED 1948-11-29 06:00:00 TS 9.33235 126.285 main 15 0 O________OPO__ jtwc_wp WP241948 9.30000 126.300 35 0 9.30000 126.300 TC 35 9.42938 126.239 2 35 9.30000 126.300 35 1002 240 18 276
1948334N09128 1948 87 WP MM NOT_NAMED 1948-11-29 09:00:00 TS 9.43468 125.386 main 10 10 P________PPP__ WP241948 9.41494 125.393 35 0 9.41494 125.393 TC 35 9.49390 125.365 2 35 9.41494 125.393 35 1002 240 18 275
1948334N09128 1948 87 WP MM NOT_NAMED 1948-11-29 12:00:00 TS 9.50000 124.500 main 24 11 O________OOO__ jtwc_wp WP241948 9.50000 124.500 35 0 9.50000 124.500 TC 35 9.50000 124.500 2 35 9.50000 124.500 35 1002 240 17 271
1948334N09128 1948 87 WP MM NOT_NAMED 1948-11-29 15:00:00 TS 9.46420 123.686 main 24 0 P________PPP__ WP241948 9.47211 123.700 37 0 9.47211 123.700 TC 37 9.44049 123.646 2 36 9.47211 123.700 37 1002 240 16 266
1948334N09128 1948 87 WP MM NOT_NAMED 1948-11-29 18:00:00 TS 9.38850 122.875 main 0 0 O________OPO__ jtwc_wp WP241948 9.40000 122.900 40 0 9.40000 122.900 TC 40 9.35399 122.798 2 37 9.40000 122.900 40 1002 240 17 265
1948334N09128 1948 87 WP MM NOT_NAMED 1948-11-29 21:00:00 TS 9.30691 121.999 main 64 64 P________PPP__ WP241948 9.31238 122.015 40 0 9.31238 122.015 TC 40 9.29050 121.952 2 38 9.31238 122.015 40 1001 240 18 267
1948334N09128 1948 87 WP MM NOT_NAMED 1948-11-30 00:00:00 TS 9.30000 121.100 main 151 135 O________OOO__ jtwc_wp WP241948 9.30000 121.100 40 0 9.30000 121.100 TC 40 9.30000 121.100 2 40 9.30000 121.100 40 1001 240 18 275
1948334N09128 1948 87 WP MM NOT_NAMED 1948-11-30 03:00:00 TS 9.45044 120.203 main 120 49 P________PPP__ WP241948 9.45483 120.193 40 0 9.45483 120.193 TC 40 9.43727 120.233 2 41 9.45483 120.193 40 1001 210 18 282
1948334N09128 1948 87 WP MM NOT_NAMED 1948-11-30 06:00:00 TS 9.68794 119.314 main 46 0 O________OPO__ jtwc_wp WP241948 9.70000 119.300 40 0 9.70000 119.300 TC 40 9.65176 119.358 2 42 9.70000 119.300 40 1001 180 18 286
1948334N09128 1948 87 WP MM NOT_NAMED 1948-11-30 09:00:00 TS 9.93547 118.457 main 15 15 P________PPP__ WP241948 9.94217 118.450 42 0 9.94217 118.450 TC 42 9.91536 118.479 2 43 9.94217 118.450 42 1000 180 18 287
1948334N09128 1948 87 WP MM NOT_NAMED 1948-11-30 12:00:00 TS 10.2000 117.600 main 109 109 O________OOO__ jtwc_wp WP241948 10.2000 117.600 45 0 10.2000 117.600 TC 45 10.2000 117.600 2 45 10.2000 117.600 45 1000 180 18 287
1948334N09128 1948 87 WP MM NOT_NAMED 1948-11-30 15:00:00 TS 10.4521 116.689 main 189 189 P________PPP__ WP241948 10.4424 116.700 45 0 10.4424 116.700 TC 45 10.4813 116.657 2 45 10.4424 116.700 45 999 180 19 286
1948334N09128 1948 87 WP MM NOT_NAMED 1948-11-30 18:00:00 TS 10.7183 115.781 main 274 274 O________OPO__ jtwc_wp WP241948 10.7000 115.800 45 0 10.7000 115.800 TC 45 10.7733 115.724 2 45 10.7000 115.800 45 998 180 19 288
1948334N09128 1948 87 WP MM NOT_NAMED 1948-11-30 21:00:00 TS 11.0247 114.875 main 369 369 P________PPP__ WP241948 11.0151 114.883 45 0 11.0151 114.883 TC 45 11.0534 114.854 2 45 11.0151 114.883 45 997 180 18 289
1948334N09128 1948 87 WP MM NOT_NAMED 1948-12-01 00:00:00 TS 11.3000 114.100 main 459 459 O________OOO__ jtwc_wp WP241948 11.3000 114.100 45 0 11.3000 114.100 TC 45 11.3000 114.100 2 45 11.3000 114.100 45 997 180 14 289
1948334N09128 1948 87 WP MM NOT_NAMED 1948-12-01 03:00:00 TS 11.4752 113.573 main 462 417 P________PPP__ WP241948 11.4721 113.590 45 0 11.4721 113.590 TC 45 11.4844 113.523 2 45 11.4721 113.590 45 997 180 10 289
1948334N09128 1948 87 WP MM NOT_NAMED 1948-12-01 06:00:00 TS 11.6089 113.166 main 417 369 O________OPO__ jtwc_wp WP241948 11.6000 113.200 45 0 11.6000 113.200 TC 45 11.6357 113.064 2 45 11.6000 113.200 45 997 180 9 289
1948334N09128 1948 87 WP MM NOT_NAMED 1948-12-01 09:00:00 TS 11.7604 112.731 main 359 314 P________PPP__ WP241948 11.7574 112.750 45 0 11.7574 112.750 TC 45 11.7692 112.673 2 45 11.7574 112.750 45 997 180 9 289
1948334N09128 1948 87 WP MM NOT_NAMED 1948-12-01 12:00:00 TS 11.9000 112.300 main 314 269 O________OOO__ jtwc_wp WP241948 11.9000 112.300 45 0 11.9000 112.300 TC 45 11.9000 112.300 2 45 11.9000 112.300 45 997 180 9 285
1948334N09128 1948 87 WP MM NOT_NAMED 1948-12-01 15:00:00 TS 11.9907 111.834 main 258 213 P________PPP__ WP241948 11.9925 111.842 45 0 11.9925 111.842 TC 45 11.9852 111.811 2 43 11.9925 111.842 45 997 180 9 282
1948334N09128 1948 87 WP MM NOT_NAMED 1948-12-01 18:00:00 TS 12.0951 111.384 main 213 169 O________OPO__ jtwc_wp WP241948 12.1000 111.400 45 0 12.1000 111.400 TC 45 12.0804 111.337 2 42 12.1000 111.400 45 997 180 9 285
1948334N09128 1948 87 WP MM NOT_NAMED 1948-12-01 21:00:00 TS 12.2276 110.952 main 169 119 P________PPP__ WP241948 12.2250 110.962 42 0 12.2250 110.962 TC 42 12.2353 110.920 2 41 12.2250 110.962 42 998 180 9 298
1948334N09128 1948 87 WP MM NOT_NAMED 1948-12-02 00:00:00 TS 12.5000 110.600 main 119 97 O________OOO__ jtwc_wp WP241948 12.5000 110.600 40 0 12.5000 110.600 TC 40 12.5000 110.600 2 40 12.5000 110.600 40 999 180 10 323
1948334N09128 1948 87 WP MM NOT_NAMED 1948-12-02 03:00:00 TS 13.0186 110.351 main 98 89 P________PPP__ WP241948 13.0549 110.333 40 0 13.0549 110.333 TC 40 12.9097 110.405 2 40 13.0549 110.333 40 999 180 12 342
1948334N09128 1948 87 WP MM NOT_NAMED 1948-12-02 06:00:00 TS 13.6479 110.222 main 97 97 O________OPO__ jtwc_wp WP241948 13.7000 110.200 40 0 13.7000 110.200 TC 40 13.4397 110.312 2 40 13.7000 110.200 40 1000 180 12 353
1948334N09128 1948 87 WP MM NOT_NAMED 1948-12-02 09:00:00 TS 14.2106 110.198 main 102 102 P________PPP__ WP241948 14.2374 110.182 40 0 14.2374 110.182 TC 40 14.0498 110.289 2 40 14.2374 110.182 40 1001 150 11 4
1948334N09128 1948 87 WP MM NOT_NAMED 1948-12-02 12:00:00 TS 14.7000 110.300 main 129 129 O________OOO__ jtwc_wp WP241948 14.7000 110.300 40 0 14.7000 110.300 TC 40 14.7000 110.300 2 40 14.7000 110.300 40 1002 120 9 20
1948334N09128 1948 87 WP MM NOT_NAMED 1948-12-02 15:00:00 TS 15.0751 110.522 main 157 157 P________P_P__ WP241948 15.0751 110.522 37 0 15.0751 110.522 TC 37 2 15.0751 110.522 37 1002 120 9 35
1948334N09128 1948 87 WP MM NOT_NAMED 1948-12-02 18:00:00 TS 15.4000 110.800 main 198 O________O_O__ jtwc_wp WP241948 15.4000 110.800 35 0 15.4000 110.800 TC 35 2 15.4000 110.800 35 1003 120 8 39

Digital Typhoon Data and Search

About IBTrACS Database

This database is a web-friendly format of International Best Track Archive for Climate Stewardship (IBTrACS), a global best track data archive curated by NOAA dating back to 1842.

Updated: 2021-12-03